sensor_id;sensor_type;location;lat;lon;timestamp;P1;durP1;ratioP1;P2;durP2;ratioP2
13969;SDS011;7057;49.984;8.404;2022-07-23T00:01:22;7.53;;;5.40;;
13969;SDS011;7057;49.984;8.404;2022-07-23T00:03:49;7.70;;;5.30;;
13969;SDS011;7057;49.984;8.404;2022-07-23T00:06:17;7.37;;;5.63;;
13969;SDS011;7057;49.984;8.404;2022-07-23T00:08:44;9.10;;;6.37;;
13969;SDS011;7057;49.984;8.404;2022-07-23T00:11:11;6.00;;;5.40;;
13969;SDS011;7057;49.984;8.404;2022-07-23T00:13:40;8.23;;;6.20;;
13969;SDS011;7057;49.984;8.404;2022-07-23T00:16:07;7.53;;;5.20;;
13969;SDS011;7057;49.984;8.404;2022-07-23T00:18:34;8.30;;;5.03;;
13969;SDS011;7057;49.984;8.404;2022-07-23T00:21:02;6.23;;;5.13;;
13969;SDS011;7057;49.984;8.404;2022-07-23T00:23:29;5.87;;;5.27;;
13969;SDS011;7057;49.984;8.404;2022-07-23T00:25:57;6.23;;;4.77;;
13969;SDS011;7057;49.984;8.404;2022-07-23T00:28:24;8.10;;;5.33;;
13969;SDS011;7057;49.984;8.404;2022-07-23T00:30:52;5.80;;;5.07;;
13969;SDS011;7057;49.984;8.404;2022-07-23T00:33:19;7.37;;;5.20;;
13969;SDS011;7057;49.984;8.404;2022-07-23T00:35:47;7.03;;;5.63;;
13969;SDS011;7057;49.984;8.404;2022-07-23T00:38:14;7.17;;;5.50;;
13969;SDS011;7057;49.984;8.404;2022-07-23T00:40:41;6.07;;;5.40;;
13969;SDS011;7057;49.984;8.404;2022-07-23T00:43:08;6.40;;;5.57;;
13969;SDS011;7057;49.984;8.404;2022-07-23T00:45:35;8.13;;;5.50;;
13969;SDS011;7057;49.984;8.404;2022-07-23T00:48:04;7.23;;;5.50;;
13969;SDS011;7057;49.984;8.404;2022-07-23T00:50:31;6.07;;;5.27;;
13969;SDS011;7057;49.984;8.404;2022-07-23T00:52:59;6.20;;;5.60;;
13969;SDS011;7057;49.984;8.404;2022-07-23T00:55:26;6.60;;;5.80;;
13969;SDS011;7057;49.984;8.404;2022-07-23T00:57:53;6.70;;;5.33;;
13969;SDS011;7057;49.984;8.404;2022-07-23T01:00:22;5.57;;;5.07;;
13969;SDS011;7057;49.984;8.404;2022-07-23T01:02:49;7.13;;;5.47;;
13969;SDS011;7057;49.984;8.404;2022-07-23T01:05:18;6.63;;;5.47;;
13969;SDS011;7057;49.984;8.404;2022-07-23T01:07:47;6.27;;;5.67;;
13969;SDS011;7057;49.984;8.404;2022-07-23T01:10:15;6.50;;;5.20;;
13969;SDS011;7057;49.984;8.404;2022-07-23T01:12:57;6.13;;;5.20;;
13969;SDS011;7057;49.984;8.404;2022-07-23T01:15:25;6.33;;;5.40;;
13969;SDS011;7057;49.984;8.404;2022-07-23T01:17:52;7.57;;;5.40;;
13969;SDS011;7057;49.984;8.404;2022-07-23T01:20:21;5.97;;;5.20;;
13969;SDS011;7057;49.984;8.404;2022-07-23T01:22:50;6.87;;;5.57;;
13969;SDS011;7057;49.984;8.404;2022-07-23T01:25:18;9.27;;;5.30;;
13969;SDS011;7057;49.984;8.404;2022-07-23T01:27:45;6.67;;;5.40;;
13969;SDS011;7057;49.984;8.404;2022-07-23T01:30:12;6.37;;;5.53;;
13969;SDS011;7057;49.984;8.404;2022-07-23T01:32:40;6.63;;;5.60;;
13969;SDS011;7057;49.984;8.404;2022-07-23T01:35:08;6.13;;;5.53;;
13969;SDS011;7057;49.984;8.404;2022-07-23T01:37:36;6.40;;;5.73;;
13969;SDS011;7057;49.984;8.404;2022-07-23T01:40:05;7.23;;;6.33;;
13969;SDS011;7057;49.984;8.404;2022-07-23T01:42:34;9.07;;;6.27;;
13969;SDS011;7057;49.984;8.404;2022-07-23T01:45:02;6.73;;;5.87;;
13969;SDS011;7057;49.984;8.404;2022-07-23T01:47:30;6.83;;;5.60;;
13969;SDS011;7057;49.984;8.404;2022-07-23T01:49:57;6.17;;;5.57;;
13969;SDS011;7057;49.984;8.404;2022-07-23T01:52:24;6.63;;;5.20;;
13969;SDS011;7057;49.984;8.404;2022-07-23T01:54:51;6.13;;;5.53;;
13969;SDS011;7057;49.984;8.404;2022-07-23T01:57:20;6.17;;;5.50;;
13969;SDS011;7057;49.984;8.404;2022-07-23T01:59:47;8.63;;;5.50;;
13969;SDS011;7057;49.984;8.404;2022-07-23T02:02:14;7.03;;;5.73;;
13969;SDS011;7057;49.984;8.404;2022-07-23T02:04:41;7.37;;;6.60;;
13969;SDS011;7057;49.984;8.404;2022-07-23T02:07:08;6.83;;;6.13;;
13969;SDS011;7057;49.984;8.404;2022-07-23T02:09:35;8.00;;;6.10;;
13969;SDS011;7057;49.984;8.404;2022-07-23T02:12:03;7.03;;;5.97;;
13969;SDS011;7057;49.984;8.404;2022-07-23T02:14:31;6.50;;;5.80;;
13969;SDS011;7057;49.984;8.404;2022-07-23T02:16:58;8.27;;;5.93;;
13969;SDS011;7057;49.984;8.404;2022-07-23T02:19:26;9.27;;;6.50;;
13969;SDS011;7057;49.984;8.404;2022-07-23T02:21:53;7.40;;;6.17;;
13969;SDS011;7057;49.984;8.404;2022-07-23T02:24:21;7.03;;;6.20;;
13969;SDS011;7057;49.984;8.404;2022-07-23T02:26:48;8.00;;;6.00;;
13969;SDS011;7057;49.984;8.404;2022-07-23T02:29:15;6.40;;;5.70;;
13969;SDS011;7057;49.984;8.404;2022-07-23T02:31:43;6.70;;;6.00;;
13969;SDS011;7057;49.984;8.404;2022-07-23T02:34:11;5.83;;;5.33;;
13969;SDS011;7057;49.984;8.404;2022-07-23T02:36:39;7.23;;;6.17;;
13969;SDS011;7057;49.984;8.404;2022-07-23T02:39:06;6.40;;;5.70;;
13969;SDS011;7057;49.984;8.404;2022-07-23T02:41:34;8.17;;;5.73;;
13969;SDS011;7057;49.984;8.404;2022-07-23T02:44:01;6.33;;;5.73;;
13969;SDS011;7057;49.984;8.404;2022-07-23T02:46:28;6.40;;;5.43;;
13969;SDS011;7057;49.984;8.404;2022-07-23T02:48:57;10.17;;;5.83;;
13969;SDS011;7057;49.984;8.404;2022-07-23T02:51:24;7.17;;;5.80;;
13969;SDS011;7057;49.984;8.404;2022-07-23T02:53:51;7.03;;;6.00;;
13969;SDS011;7057;49.984;8.404;2022-07-23T02:56:18;6.93;;;6.17;;
13969;SDS011;7057;49.984;8.404;2022-07-23T02:58:45;6.93;;;6.03;;
13969;SDS011;7057;49.984;8.404;2022-07-23T03:01:12;9.27;;;6.10;;
13969;SDS011;7057;49.984;8.404;2022-07-23T03:03:39;6.17;;;5.57;;
13969;SDS011;7057;49.984;8.404;2022-07-23T03:06:08;8.03;;;6.03;;
13969;SDS011;7057;49.984;8.404;2022-07-23T03:08:35;7.87;;;6.33;;
13969;SDS011;7057;49.984;8.404;2022-07-23T03:11:02;6.60;;;5.90;;
13969;SDS011;7057;49.984;8.404;2022-07-23T03:13:29;6.77;;;6.07;;
13969;SDS011;7057;49.984;8.404;2022-07-23T03:15:56;6.37;;;5.77;;
13969;SDS011;7057;49.984;8.404;2022-07-23T03:18:23;7.47;;;6.17;;
13969;SDS011;7057;49.984;8.404;2022-07-23T03:20:50;7.47;;;6.00;;
13969;SDS011;7057;49.984;8.404;2022-07-23T03:23:19;7.53;;;6.73;;
13969;SDS011;7057;49.984;8.404;2022-07-23T03:25:46;9.13;;;6.77;;
13969;SDS011;7057;49.984;8.404;2022-07-23T03:28:14;7.60;;;6.33;;
13969;SDS011;7057;49.984;8.404;2022-07-23T03:30:41;6.77;;;6.10;;
13969;SDS011;7057;49.984;8.404;2022-07-23T03:33:08;8.20;;;6.03;;
13969;SDS011;7057;49.984;8.404;2022-07-23T03:35:35;7.70;;;6.57;;
13969;SDS011;7057;49.984;8.404;2022-07-23T03:38:02;7.83;;;6.30;;
13969;SDS011;7057;49.984;8.404;2022-07-23T03:40:31;6.70;;;5.93;;
13969;SDS011;7057;49.984;8.404;2022-07-23T03:42:58;8.50;;;6.27;;
13969;SDS011;7057;49.984;8.404;2022-07-23T03:45:25;7.00;;;5.70;;
13969;SDS011;7057;49.984;8.404;2022-07-23T03:47:52;6.83;;;5.97;;
13969;SDS011;7057;49.984;8.404;2022-07-23T03:50:20;6.93;;;6.23;;
13969;SDS011;7057;49.984;8.404;2022-07-23T03:52:47;6.97;;;5.90;;
13969;SDS011;7057;49.984;8.404;2022-07-23T03:55:14;7.07;;;6.37;;
13969;SDS011;7057;49.984;8.404;2022-07-23T03:57:43;8.93;;;6.47;;
13969;SDS011;7057;49.984;8.404;2022-07-23T04:00:10;7.77;;;6.70;;
13969;SDS011;7057;49.984;8.404;2022-07-23T04:02:39;7.13;;;6.10;;
13969;SDS011;7057;49.984;8.404;2022-07-23T04:05:07;7.37;;;6.50;;
13969;SDS011;7057;49.984;8.404;2022-07-23T04:07:34;8.63;;;6.33;;
13969;SDS011;7057;49.984;8.404;2022-07-23T04:10:01;6.93;;;6.23;;
13969;SDS011;7057;49.984;8.404;2022-07-23T04:12:29;7.50;;;5.73;;
13969;SDS011;7057;49.984;8.404;2022-07-23T04:14:57;6.30;;;5.50;;
13969;SDS011;7057;49.984;8.404;2022-07-23T04:17:24;5.93;;;5.37;;
13969;SDS011;7057;49.984;8.404;2022-07-23T04:19:52;6.67;;;5.93;;
13969;SDS011;7057;49.984;8.404;2022-07-23T04:22:19;6.87;;;6.03;;
13969;SDS011;7057;49.984;8.404;2022-07-23T04:24:46;6.60;;;5.90;;
13969;SDS011;7057;49.984;8.404;2022-07-23T04:27:14;8.47;;;6.20;;
13969;SDS011;7057;49.984;8.404;2022-07-23T04:29:41;8.10;;;6.30;;
13969;SDS011;7057;49.984;8.404;2022-07-23T04:32:10;8.53;;;6.30;;
13969;SDS011;7057;49.984;8.404;2022-07-23T04:34:37;8.50;;;6.70;;
13969;SDS011;7057;49.984;8.404;2022-07-23T04:37:04;8.57;;;5.80;;
13969;SDS011;7057;49.984;8.404;2022-07-23T04:39:31;8.47;;;6.33;;
13969;SDS011;7057;49.984;8.404;2022-07-23T04:41:58;6.70;;;5.97;;
13969;SDS011;7057;49.984;8.404;2022-07-23T04:44:26;7.27;;;6.50;;
13969;SDS011;7057;49.984;8.404;2022-07-23T04:46:53;8.67;;;6.50;;
13969;SDS011;7057;49.984;8.404;2022-07-23T04:49:21;9.33;;;6.07;;
13969;SDS011;7057;49.984;8.404;2022-07-23T04:51:48;10.37;;;6.30;;
13969;SDS011;7057;49.984;8.404;2022-07-23T04:54:15;6.87;;;5.80;;
13969;SDS011;7057;49.984;8.404;2022-07-23T04:56:43;7.00;;;6.27;;
13969;SDS011;7057;49.984;8.404;2022-07-23T04:59:10;6.73;;;6.03;;
13969;SDS011;7057;49.984;8.404;2022-07-23T05:01:37;7.27;;;6.50;;
13969;SDS011;7057;49.984;8.404;2022-07-23T05:04:04;9.03;;;6.63;;
13969;SDS011;7057;49.984;8.404;2022-07-23T05:06:32;9.60;;;6.60;;
13969;SDS011;7057;49.984;8.404;2022-07-23T05:08:59;8.13;;;6.50;;
13969;SDS011;7057;49.984;8.404;2022-07-23T05:11:27;8.33;;;6.40;;
13969;SDS011;7057;49.984;8.404;2022-07-23T05:13:54;6.50;;;5.87;;
13969;SDS011;7057;49.984;8.404;2022-07-23T05:16:21;10.07;;;6.00;;
13969;SDS011;7057;49.984;8.404;2022-07-23T05:18:48;6.93;;;5.67;;
13969;SDS011;7057;49.984;8.404;2022-07-23T05:21:15;7.10;;;6.40;;
13969;SDS011;7057;49.984;8.404;2022-07-23T05:23:44;8.43;;;6.33;;
13969;SDS011;7057;49.984;8.404;2022-07-23T05:26:11;7.47;;;6.77;;
13969;SDS011;7057;49.984;8.404;2022-07-23T05:28:38;7.67;;;6.43;;
13969;SDS011;7057;49.984;8.404;2022-07-23T05:31:05;8.80;;;6.80;;
13969;SDS011;7057;49.984;8.404;2022-07-23T05:33:32;7.50;;;6.77;;
13969;SDS011;7057;49.984;8.404;2022-07-23T05:36:00;8.80;;;6.90;;
13969;SDS011;7057;49.984;8.404;2022-07-23T05:38:28;8.63;;;6.20;;
13969;SDS011;7057;49.984;8.404;2022-07-23T05:40:56;8.23;;;6.80;;
13969;SDS011;7057;49.984;8.404;2022-07-23T05:43:24;8.60;;;7.10;;
13969;SDS011;7057;49.984;8.404;2022-07-23T05:45:51;7.78;;;6.97;;
13969;SDS011;7057;49.984;8.404;2022-07-23T05:48:18;6.97;;;6.23;;
13969;SDS011;7057;49.984;8.404;2022-07-23T05:50:46;7.23;;;6.30;;
13969;SDS011;7057;49.984;8.404;2022-07-23T05:53:13;7.57;;;6.73;;
13969;SDS011;7057;49.984;8.404;2022-07-23T05:55:40;7.40;;;6.33;;
13969;SDS011;7057;49.984;8.404;2022-07-23T05:58:09;9.27;;;7.23;;
13969;SDS011;7057;49.984;8.404;2022-07-23T06:00:36;8.27;;;6.50;;
13969;SDS011;7057;49.984;8.404;2022-07-23T06:03:03;7.87;;;6.73;;
13969;SDS011;7057;49.984;8.404;2022-07-23T06:05:30;8.53;;;6.80;;
13969;SDS011;7057;49.984;8.404;2022-07-23T06:07:57;8.40;;;6.77;;
13969;SDS011;7057;49.984;8.404;2022-07-23T06:10:24;7.47;;;6.17;;
13969;SDS011;7057;49.984;8.404;2022-07-23T06:12:52;8.07;;;6.13;;
13969;SDS011;7057;49.984;8.404;2022-07-23T06:15:20;7.00;;;6.30;;
13969;SDS011;7057;49.984;8.404;2022-07-23T06:17:47;9.70;;;6.90;;
13969;SDS011;7057;49.984;8.404;2022-07-23T06:20:14;8.77;;;6.97;;
13969;SDS011;7057;49.984;8.404;2022-07-23T06:22:41;9.53;;;7.07;;
13969;SDS011;7057;49.984;8.404;2022-07-23T06:25:09;8.10;;;7.10;;
13969;SDS011;7057;49.984;8.404;2022-07-23T06:27:36;9.13;;;7.40;;
13969;SDS011;7057;49.984;8.404;2022-07-23T06:30:03;9.30;;;6.50;;
13969;SDS011;7057;49.984;8.404;2022-07-23T06:32:32;9.07;;;5.97;;
13969;SDS011;7057;49.984;8.404;2022-07-23T06:34:59;7.03;;;6.13;;
13969;SDS011;7057;49.984;8.404;2022-07-23T06:37:26;8.77;;;6.40;;
13969;SDS011;7057;49.984;8.404;2022-07-23T06:39:53;7.07;;;6.03;;
13969;SDS011;7057;49.984;8.404;2022-07-23T06:42:21;7.37;;;6.37;;
13969;SDS011;7057;49.984;8.404;2022-07-23T06:44:48;9.17;;;6.73;;
13969;SDS011;7057;49.984;8.404;2022-07-23T06:47:15;7.30;;;6.40;;
13969;SDS011;7057;49.984;8.404;2022-07-23T06:49:43;7.50;;;5.53;;
13969;SDS011;7057;49.984;8.404;2022-07-23T06:52:11;7.63;;;5.50;;
13969;SDS011;7057;49.984;8.404;2022-07-23T06:54:38;7.73;;;6.23;;
13969;SDS011;7057;49.984;8.404;2022-07-23T06:57:05;8.03;;;5.73;;
13969;SDS011;7057;49.984;8.404;2022-07-23T06:59:32;7.47;;;6.60;;
13969;SDS011;7057;49.984;8.404;2022-07-23T07:02:01;8.17;;;5.70;;
13969;SDS011;7057;49.984;8.404;2022-07-23T07:04:29;8.07;;;6.03;;
13969;SDS011;7057;49.984;8.404;2022-07-23T07:06:57;5.97;;;5.37;;
13969;SDS011;7057;49.984;8.404;2022-07-23T07:09:24;10.07;;;5.87;;
13969;SDS011;7057;49.984;8.404;2022-07-23T07:11:51;6.13;;;5.50;;
13969;SDS011;7057;49.984;8.404;2022-07-23T07:14:19;6.50;;;5.80;;
13969;SDS011;7057;49.984;8.404;2022-07-23T07:16:46;7.23;;;6.27;;
13969;SDS011;7057;49.984;8.404;2022-07-23T07:19:13;6.97;;;5.30;;
13969;SDS011;7057;49.984;8.404;2022-07-23T07:21:40;7.27;;;5.07;;
13969;SDS011;7057;49.984;8.404;2022-07-23T07:24:08;5.83;;;5.23;;
13969;SDS011;7057;49.984;8.404;2022-07-23T07:26:35;5.97;;;5.10;;
13969;SDS011;7057;49.984;8.404;2022-07-23T07:29:04;6.00;;;5.40;;
13969;SDS011;7057;49.984;8.404;2022-07-23T07:31:31;6.47;;;5.80;;
13969;SDS011;7057;49.984;8.404;2022-07-23T07:33:59;7.37;;;5.17;;
13969;SDS011;7057;49.984;8.404;2022-07-23T07:36:26;7.23;;;5.63;;
13969;SDS011;7057;49.984;8.404;2022-07-23T07:38:53;5.77;;;5.17;;
13969;SDS011;7057;49.984;8.404;2022-07-23T07:41:22;6.83;;;5.77;;
13969;SDS011;7057;49.984;8.404;2022-07-23T07:43:49;8.23;;;5.37;;
13969;SDS011;7057;49.984;8.404;2022-07-23T07:46:17;6.80;;;5.77;;
13969;SDS011;7057;49.984;8.404;2022-07-23T07:48:44;8.47;;;5.87;;
13969;SDS011;7057;49.984;8.404;2022-07-23T07:51:11;7.40;;;6.00;;
13969;SDS011;7057;49.984;8.404;2022-07-23T07:53:38;6.57;;;5.87;;
13969;SDS011;7057;49.984;8.404;2022-07-23T07:56:05;7.17;;;6.40;;
13969;SDS011;7057;49.984;8.404;2022-07-23T07:58:34;8.27;;;5.63;;
13969;SDS011;7057;49.984;8.404;2022-07-23T08:01:01;6.13;;;5.53;;
13969;SDS011;7057;49.984;8.404;2022-07-23T08:03:28;5.87;;;5.33;;
13969;SDS011;7057;49.984;8.404;2022-07-23T08:05:56;6.93;;;6.07;;
13969;SDS011;7057;49.984;8.404;2022-07-23T08:08:24;9.87;;;5.53;;
13969;SDS011;7057;49.984;8.404;2022-07-23T08:10:51;7.37;;;5.63;;
13969;SDS011;7057;49.984;8.404;2022-07-23T08:13:18;7.67;;;5.43;;
13969;SDS011;7057;49.984;8.404;2022-07-23T08:15:46;7.43;;;5.80;;
13969;SDS011;7057;49.984;8.404;2022-07-23T08:18:14;6.37;;;5.77;;
13969;SDS011;7057;49.984;8.404;2022-07-23T08:20:41;7.03;;;6.33;;
13969;SDS011;7057;49.984;8.404;2022-07-23T08:23:08;9.33;;;6.70;;
13969;SDS011;7057;49.984;8.404;2022-07-23T08:25:37;7.33;;;5.97;;
13969;SDS011;7057;49.984;8.404;2022-07-23T08:28:05;8.60;;;6.53;;
13969;SDS011;7057;49.984;8.404;2022-07-23T08:30:34;6.67;;;6.03;;
13969;SDS011;7057;49.984;8.404;2022-07-23T08:33:04;7.07;;;5.90;;
13969;SDS011;7057;49.984;8.404;2022-07-23T08:35:33;7.10;;;6.40;;
13969;SDS011;7057;49.984;8.404;2022-07-23T08:38:03;7.60;;;6.63;;
13969;SDS011;7057;49.984;8.404;2022-07-23T08:40:33;8.00;;;6.78;;
13969;SDS011;7057;49.984;8.404;2022-07-23T08:43:02;7.80;;;6.78;;
13969;SDS011;7057;49.984;8.404;2022-07-23T08:45:35;7.47;;;6.13;;
13969;SDS011;7057;49.984;8.404;2022-07-23T08:48:05;8.37;;;6.00;;
13969;SDS011;7057;49.984;8.404;2022-07-23T08:50:35;6.90;;;6.20;;
13969;SDS011;7057;49.984;8.404;2022-07-23T08:53:05;6.23;;;5.63;;
13969;SDS011;7057;49.984;8.404;2022-07-23T08:55:33;9.80;;;6.80;;
13969;SDS011;7057;49.984;8.404;2022-07-23T08:58:01;8.77;;;6.95;;
13969;SDS011;7057;49.984;8.404;2022-07-23T09:00:28;7.10;;;6.45;;
13969;SDS011;7057;49.984;8.404;2022-07-23T09:02:56;7.37;;;6.60;;
13969;SDS011;7057;49.984;8.404;2022-07-23T09:05:24;6.53;;;5.93;;
13969;SDS011;7057;49.984;8.404;2022-07-23T09:08:03;8.47;;;6.13;;
13969;SDS011;7057;49.984;8.404;2022-07-23T09:10:32;6.77;;;6.07;;
13969;SDS011;7057;49.984;8.404;2022-07-23T09:13:21;7.03;;;5.57;;
13969;SDS011;7057;49.984;8.404;2022-07-23T09:15:58;6.87;;;6.07;;
13969;SDS011;7057;49.984;8.404;2022-07-23T09:18:30;6.70;;;6.10;;
13969;SDS011;7057;49.984;8.404;2022-07-23T09:21:09;5.57;;;5.07;;
13969;SDS011;7057;49.984;8.404;2022-07-23T09:23:39;8.00;;;5.90;;
13969;SDS011;7057;49.984;8.404;2022-07-23T09:26:18;7.00;;;5.87;;
13969;SDS011;7057;49.984;8.404;2022-07-23T09:29:00;6.60;;;5.60;;
13969;SDS011;7057;49.984;8.404;2022-07-23T09:31:42;7.47;;;5.73;;
13969;SDS011;7057;49.984;8.404;2022-07-23T09:34:15;8.00;;;5.90;;
13969;SDS011;7057;49.984;8.404;2022-07-23T09:36:46;6.77;;;5.67;;
13969;SDS011;7057;49.984;8.404;2022-07-23T09:39:15;6.77;;;5.33;;
13969;SDS011;7057;49.984;8.404;2022-07-23T09:41:48;6.73;;;5.40;;
13969;SDS011;7057;49.984;8.404;2022-07-23T09:44:16;5.50;;;5.00;;
13969;SDS011;7057;49.984;8.404;2022-07-23T09:46:44;6.17;;;5.00;;
13969;SDS011;7057;49.984;8.404;2022-07-23T09:49:14;5.73;;;4.80;;
13969;SDS011;7057;49.984;8.404;2022-07-23T09:51:45;5.67;;;5.03;;
13969;SDS011;7057;49.984;8.404;2022-07-23T09:54:20;6.30;;;5.30;;
13969;SDS011;7057;49.984;8.404;2022-07-23T09:56:52;5.27;;;4.77;;
13969;SDS011;7057;49.984;8.404;2022-07-23T09:59:22;5.63;;;4.90;;
13969;SDS011;7057;49.984;8.404;2022-07-23T10:01:52;5.40;;;4.90;;
13969;SDS011;7057;49.984;8.404;2022-07-23T10:04:22;5.10;;;4.60;;
13969;SDS011;7057;49.984;8.404;2022-07-23T10:06:52;6.67;;;5.50;;
13969;SDS011;7057;49.984;8.404;2022-07-23T10:09:22;7.57;;;5.50;;
13969;SDS011;7057;49.984;8.404;2022-07-23T10:11:51;6.40;;;5.10;;
13969;SDS011;7057;49.984;8.404;2022-07-23T10:14:23;4.67;;;4.27;;
13969;SDS011;7057;49.984;8.404;2022-07-23T10:16:50;4.90;;;4.33;;
13969;SDS011;7057;49.984;8.404;2022-07-23T10:19:18;4.87;;;4.37;;
13969;SDS011;7057;49.984;8.404;2022-07-23T10:21:47;4.53;;;4.10;;
13969;SDS011;7057;49.984;8.404;2022-07-23T10:24:20;4.97;;;4.47;;
13969;SDS011;7057;49.984;8.404;2022-07-23T10:27:00;4.77;;;4.33;;
13969;SDS011;7057;49.984;8.404;2022-07-23T10:29:38;4.67;;;4.27;;
13969;SDS011;7057;49.984;8.404;2022-07-23T10:32:17;6.97;;;4.40;;
13969;SDS011;7057;49.984;8.404;2022-07-23T10:34:55;4.83;;;4.43;;
13969;SDS011;7057;49.984;8.404;2022-07-23T10:37:32;4.60;;;4.10;;
13969;SDS011;7057;49.984;8.404;2022-07-23T10:40:13;5.67;;;4.27;;
13969;SDS011;7057;49.984;8.404;2022-07-23T10:42:42;5.40;;;4.33;;
13969;SDS011;7057;49.984;8.404;2022-07-23T10:45:23;5.13;;;4.37;;
13969;SDS011;7057;49.984;8.404;2022-07-23T10:48:08;5.33;;;4.73;;
13969;SDS011;7057;49.984;8.404;2022-07-23T10:50:39;5.57;;;4.97;;
13969;SDS011;7057;49.984;8.404;2022-07-23T10:53:10;4.87;;;4.13;;
13969;SDS011;7057;49.984;8.404;2022-07-23T10:55:49;5.50;;;4.73;;
13969;SDS011;7057;49.984;8.404;2022-07-23T10:58:19;4.70;;;4.30;;
13969;SDS011;7057;49.984;8.404;2022-07-23T11:00:47;4.97;;;4.47;;
13969;SDS011;7057;49.984;8.404;2022-07-23T11:03:28;5.87;;;4.60;;
13969;SDS011;7057;49.984;8.404;2022-07-23T11:06:02;5.53;;;5.00;;
13969;SDS011;7057;49.984;8.404;2022-07-23T11:08:29;5.73;;;5.20;;
13969;SDS011;7057;49.984;8.404;2022-07-23T11:11:10;5.67;;;5.13;;
13969;SDS011;7057;49.984;8.404;2022-07-23T11:13:41;5.23;;;4.73;;
13969;SDS011;7057;49.984;8.404;2022-07-23T11:16:17;5.47;;;4.90;;
13969;SDS011;7057;49.984;8.404;2022-07-23T11:18:54;5.70;;;5.07;;
13969;SDS011;7057;49.984;8.404;2022-07-23T11:21:43;6.00;;;5.40;;
13969;SDS011;7057;49.984;8.404;2022-07-23T11:24:18;7.63;;;5.17;;
13969;SDS011;7057;49.984;8.404;2022-07-23T11:26:49;5.57;;;5.07;;
13969;SDS011;7057;49.984;8.404;2022-07-23T11:29:37;6.32;;;5.63;;
13969;SDS011;7057;49.984;8.404;2022-07-23T11:32:25;6.43;;;5.17;;
13969;SDS011;7057;49.984;8.404;2022-07-23T11:34:56;6.80;;;5.33;;
13969;SDS011;7057;49.984;8.404;2022-07-23T11:37:27;10.30;;;5.40;;
13969;SDS011;7057;49.984;8.404;2022-07-23T11:39:57;6.10;;;5.53;;
13969;SDS011;7057;49.984;8.404;2022-07-23T11:42:26;5.73;;;5.13;;
13969;SDS011;7057;49.984;8.404;2022-07-23T11:44:53;6.73;;;5.27;;
13969;SDS011;7057;49.984;8.404;2022-07-23T11:47:22;4.97;;;4.57;;
13969;SDS011;7057;49.984;8.404;2022-07-23T11:49:53;5.43;;;4.73;;
13969;SDS011;7057;49.984;8.404;2022-07-23T11:52:21;5.53;;;5.00;;
13969;SDS011;7057;49.984;8.404;2022-07-23T11:54:50;5.37;;;4.87;;
13969;SDS011;7057;49.984;8.404;2022-07-23T11:57:19;6.90;;;5.33;;
13969;SDS011;7057;49.984;8.404;2022-07-23T11:59:52;5.77;;;5.27;;
13969;SDS011;7057;49.984;8.404;2022-07-23T12:02:22;6.03;;;5.20;;
13969;SDS011;7057;49.984;8.404;2022-07-23T12:04:51;5.73;;;5.13;;
13969;SDS011;7057;49.984;8.404;2022-07-23T12:07:29;5.50;;;5.00;;
13969;SDS011;7057;49.984;8.404;2022-07-23T12:09:57;6.77;;;5.37;;
13969;SDS011;7057;49.984;8.404;2022-07-23T12:12:26;6.20;;;5.60;;
13969;SDS011;7057;49.984;8.404;2022-07-23T12:14:56;5.63;;;5.00;;
13969;SDS011;7057;49.984;8.404;2022-07-23T12:17:27;8.83;;;5.43;;
13969;SDS011;7057;49.984;8.404;2022-07-23T12:19:55;5.67;;;5.03;;
13969;SDS011;7057;49.984;8.404;2022-07-23T12:22:23;7.30;;;5.40;;
13969;SDS011;7057;49.984;8.404;2022-07-23T12:24:54;5.30;;;4.80;;
13969;SDS011;7057;49.984;8.404;2022-07-23T12:27:23;5.63;;;5.13;;
13969;SDS011;7057;49.984;8.404;2022-07-23T12:29:50;7.27;;;4.60;;
13969;SDS011;7057;49.984;8.404;2022-07-23T12:32:20;6.00;;;4.67;;
13969;SDS011;7057;49.984;8.404;2022-07-23T12:34:49;5.70;;;4.70;;
13969;SDS011;7057;49.984;8.404;2022-07-23T12:37:25;5.40;;;4.90;;
13969;SDS011;7057;49.984;8.404;2022-07-23T12:39:53;7.67;;;4.97;;
13969;SDS011;7057;49.984;8.404;2022-07-23T12:42:21;5.87;;;4.87;;
13969;SDS011;7057;49.984;8.404;2022-07-23T12:45:08;5.80;;;4.63;;
13969;SDS011;7057;49.984;8.404;2022-07-23T12:50:30;7.13;;;4.73;;
13969;SDS011;7057;49.984;8.404;2022-07-23T12:53:03;6.83;;;4.93;;
13969;SDS011;7057;49.984;8.404;2022-07-23T12:55:31;5.23;;;4.73;;
13969;SDS011;7057;49.984;8.404;2022-07-23T12:58:05;6.40;;;4.93;;
13969;SDS011;7057;49.984;8.404;2022-07-23T13:00:57;5.00;;;4.60;;
13969;SDS011;7057;49.984;8.404;2022-07-23T13:03:30;5.20;;;4.53;;
13969;SDS011;7057;49.984;8.404;2022-07-23T13:05:59;5.20;;;4.70;;
13969;SDS011;7057;49.984;8.404;2022-07-23T13:08:27;5.27;;;4.77;;
13969;SDS011;7057;49.984;8.404;2022-07-23T13:10:55;4.90;;;4.40;;
13969;SDS011;7057;49.984;8.404;2022-07-23T13:13:23;5.93;;;5.30;;
13969;SDS011;7057;49.984;8.404;2022-07-23T13:15:53;5.80;;;5.20;;
13969;SDS011;7057;49.984;8.404;2022-07-23T13:18:21;5.00;;;4.50;;
13969;SDS011;7057;49.984;8.404;2022-07-23T13:20:50;4.97;;;4.43;;
13969;SDS011;7057;49.984;8.404;2022-07-23T13:23:17;9.97;;;4.80;;
13969;SDS011;7057;49.984;8.404;2022-07-23T13:25:44;5.77;;;4.90;;
13969;SDS011;7057;49.984;8.404;2022-07-23T13:28:12;5.93;;;4.60;;
13969;SDS011;7057;49.984;8.404;2022-07-23T13:30:40;5.30;;;4.80;;
13969;SDS011;7057;49.984;8.404;2022-07-23T13:33:08;5.23;;;4.73;;
13969;SDS011;7057;49.984;8.404;2022-07-23T13:35:35;6.00;;;5.07;;
13969;SDS011;7057;49.984;8.404;2022-07-23T13:38:04;5.20;;;4.70;;
13969;SDS011;7057;49.984;8.404;2022-07-23T13:40:35;5.33;;;4.70;;
13969;SDS011;7057;49.984;8.404;2022-07-23T13:43:05;5.87;;;5.10;;
13969;SDS011;7057;49.984;8.404;2022-07-23T13:45:32;4.60;;;4.20;;
13969;SDS011;7057;49.984;8.404;2022-07-23T13:48:00;5.23;;;4.53;;
13969;SDS011;7057;49.984;8.404;2022-07-23T13:50:27;5.00;;;4.50;;
13969;SDS011;7057;49.984;8.404;2022-07-23T13:52:55;5.20;;;4.70;;
13969;SDS011;7057;49.984;8.404;2022-07-23T13:55:23;5.63;;;4.67;;
13969;SDS011;7057;49.984;8.404;2022-07-23T13:57:51;7.70;;;5.00;;
13969;SDS011;7057;49.984;8.404;2022-07-23T14:00:18;5.60;;;4.70;;
13969;SDS011;7057;49.984;8.404;2022-07-23T14:02:45;6.47;;;5.00;;
13969;SDS011;7057;49.984;8.404;2022-07-23T14:05:12;5.20;;;4.73;;
13969;SDS011;7057;49.984;8.404;2022-07-23T14:07:39;5.90;;;5.33;;
13969;SDS011;7057;49.984;8.404;2022-07-23T14:10:08;5.57;;;4.87;;
13969;SDS011;7057;49.984;8.404;2022-07-23T14:12:37;5.60;;;4.97;;
13969;SDS011;7057;49.984;8.404;2022-07-23T14:15:05;5.27;;;4.77;;
13969;SDS011;7057;49.984;8.404;2022-07-23T14:17:36;6.20;;;4.57;;
13969;SDS011;7057;49.984;8.404;2022-07-23T14:20:05;5.00;;;4.60;;
13969;SDS011;7057;49.984;8.404;2022-07-23T14:22:34;5.77;;;5.20;;
13969;SDS011;7057;49.984;8.404;2022-07-23T14:25:01;5.40;;;5.00;;
13969;SDS011;7057;49.984;8.404;2022-07-23T14:27:29;5.87;;;5.27;;
13969;SDS011;7057;49.984;8.404;2022-07-23T14:29:58;5.90;;;4.93;;
13969;SDS011;7057;49.984;8.404;2022-07-23T14:32:25;5.47;;;4.97;;
13969;SDS011;7057;49.984;8.404;2022-07-23T14:34:53;5.83;;;5.23;;
13969;SDS011;7057;49.984;8.404;2022-07-23T14:37:20;6.00;;;5.17;;
13969;SDS011;7057;49.984;8.404;2022-07-23T14:39:47;6.20;;;5.27;;
13969;SDS011;7057;49.984;8.404;2022-07-23T14:42:14;6.33;;;5.07;;
13969;SDS011;7057;49.984;8.404;2022-07-23T14:44:41;5.27;;;4.77;;
13969;SDS011;7057;49.984;8.404;2022-07-23T14:47:10;5.83;;;5.00;;
13969;SDS011;7057;49.984;8.404;2022-07-23T14:49:37;5.93;;;5.30;;
13969;SDS011;7057;49.984;8.404;2022-07-23T14:52:04;6.57;;;5.50;;
13969;SDS011;7057;49.984;8.404;2022-07-23T14:54:32;5.30;;;4.80;;
13969;SDS011;7057;49.984;8.404;2022-07-23T14:57:00;5.33;;;4.43;;
13969;SDS011;7057;49.984;8.404;2022-07-23T14:59:29;5.33;;;4.83;;
13969;SDS011;7057;49.984;8.404;2022-07-23T15:01:56;5.97;;;4.43;;
13969;SDS011;7057;49.984;8.404;2022-07-23T15:04:25;5.93;;;5.03;;
13969;SDS011;7057;49.984;8.404;2022-07-23T15:06:52;5.50;;;4.63;;
13969;SDS011;7057;49.984;8.404;2022-07-23T15:09:20;5.23;;;4.73;;
13969;SDS011;7057;49.984;8.404;2022-07-23T15:11:47;5.82;;;4.93;;
13969;SDS011;7057;49.984;8.404;2022-07-23T15:14:14;5.50;;;4.97;;